Strona główna
METAR-TAF:

METAR-TAF

Lotnisko :

Port lotniczy Caracas

Caracas, Wenezuela

Szerokość geograficzna: 10-36N, Długość geograficzna: 066-59W, wysokość: 43 m

Aktualna obserwacja pogody

Raport powstał 1 godzina i 2 minut temu, godzina 10:00 UTC
Cisza
Temperatura 26°C
Wilgotność 84%
Ciśnienie 1011 hPa
Widzialność 10 km lub więcej
Rozproszone chmury na wysokości 1600 ft

METAR: SVMI 191000Z 00000KT 9999 SCT016 26/23 Q1011

czas: 07:02 (11:02 UTC)

Prognoza

Raport powstał 7 godziny i 2 minut temu, godzina 04:00 UTC
Prognoza ważna od 19 godzina 06 UTC do 20 godzina 06 UTC
Wiatr 4 kt od wschód
Widzialność 10 km lub więcej
Rozproszone chmury na wysokości 1600 ft
Stopniowe zmiany
od 19 godzina 06 UTC do 19 godzina 10 UTC
Wiatr 3 kt od wschodnio-południowy wschód
Mało chmury na wysokości 1600 ft
Rozproszone chmury na wysokości 10000 ft

TAF: SVMI 190400Z 1906/2006 09004KT 9999 SCT016 TX32/19Z TN22/08Z BECMG 1906/1910 11003KT FEW016 SCT100

Obserwacja i prognoza pogody dla ponad 4000 lotnisk (raport METAR i TAF).

Dostępne stacje oznaczono żółtymi i czerwonymi punktami na mapie.

Najedź kursorem aby zobaczyć nazwę stacji.

Kliknij aby zobaczyć obserwacje i prognozy pogody.

Aby zmienić mapę: kliknij na zielony przycisk z czarnym krzyżykiem, aby powiększyć; na zielony przycisk z myślnikiem, aby pomniejszyć; na zielone strzałki, aby przejść do map sąsiednich.


METAR-TAF: